Time;durP1;ratioP1;P1;durP2;ratioP2;P2;SDS_P1;SDS_P2;PMS_P1;PMS_P2;Temp;Humidity;BMP_temperature;BMP_pressure;BME280_temperature;BME280_humidity;BME280_pressure;Samples;Min_cycle;Max_cycle;Signal;HPM_P1;HPM_P2
2021/03/23 00:00:22;;;;;;;10.67;5.73;;;4.20;99.90;;;;;;5116459;28;20957;-79
2021/03/23 00:02:54;;;;;;;14.00;6.10;;;4.20;99.90;;;;;;5117065;28;20479;-88
2021/03/23 00:05:21;;;;;;;8.90;5.13;;;4.20;99.90;;;;;;5117040;28;20431;-79
2021/03/23 00:07:47;;;;;;;11.40;6.03;;;4.30;99.90;;;;;;5116295;28;20494;-79
2021/03/23 00:10:15;;;;;;;8.03;4.87;;;4.20;99.90;;;;;;5116941;28;20492;-79
2021/03/23 00:12:41;;;;;;;7.83;4.80;;;4.20;99.90;;;;;;5115955;28;20788;-79
2021/03/23 00:15:10;;;;;;;12.53;7.83;;;4.20;99.90;;;;;;5116176;28;20505;-79
2021/03/23 00:17:37;;;;;;;8.57;4.90;;;4.20;99.90;;;;;;5116223;28;20466;-86
2021/03/23 00:20:06;;;;;;;8.27;5.40;;;4.20;99.90;;;;;;5117138;28;20538;-88
2021/03/23 00:22:34;;;;;;;8.10;4.97;;;4.20;99.90;;;;;;5116933;28;20816;-88
2021/03/23 00:25:00;;;;;;;12.77;5.43;;;4.20;99.90;;;;;;5116117;28;20930;-79
2021/03/23 00:27:27;;;;;;;9.50;4.87;;;4.20;99.90;;;;;;5116253;28;20520;-86
2021/03/23 00:29:53;;;;;;;12.17;5.90;;;4.20;99.90;;;;;;5116483;28;20438;-87
2021/03/23 00:32:19;;;;;;;10.63;5.77;;;4.20;99.90;;;;;;5115920;28;20466;-79
2021/03/23 00:34:45;;;;;;;9.53;5.70;;;4.10;99.90;;;;;;5115802;28;20474;-79
2021/03/23 00:37:13;;;;;;;9.73;5.93;;;4.20;99.90;;;;;;5116333;28;20830;-88
2021/03/23 00:39:40;;;;;;;12.60;5.67;;;4.20;99.90;;;;;;5116911;28;20477;-79
2021/03/23 00:42:07;;;;;;;12.57;6.27;;;4.20;99.90;;;;;;5115339;28;20447;-79
2021/03/23 00:44:34;;;;;;;12.50;6.30;;;4.20;99.90;;;;;;5115652;28;20447;-79
2021/03/23 00:47:00;;;;;;;10.40;6.17;;;4.20;99.90;;;;;;5115510;28;20463;-79
2021/03/23 00:49:27;;;;;;;10.77;5.67;;;4.10;99.90;;;;;;5115302;28;20801;-78
2021/03/23 00:51:53;;;;;;;10.90;5.60;;;4.20;99.90;;;;;;5115245;28;20447;-79
2021/03/23 00:54:20;;;;;;;10.97;6.70;;;4.20;99.90;;;;;;5115399;28;20487;-79
2021/03/23 00:56:46;;;;;;;13.73;5.90;;;4.20;99.90;;;;;;5114962;28;20527;-79
2021/03/23 00:59:13;;;;;;;12.07;5.83;;;4.20;99.90;;;;;;5115363;28;20443;-79
2021/03/23 01:01:39;;;;;;;9.70;5.10;;;4.20;99.90;;;;;;5114451;28;20507;-79
2021/03/23 01:04:06;;;;;;;9.67;5.77;;;4.20;99.90;;;;;;5115284;28;20462;-79
2021/03/23 01:06:33;;;;;;;10.80;6.27;;;4.20;99.90;;;;;;5115682;28;20481;-86
2021/03/23 01:08:59;;;;;;;10.80;6.33;;;4.20;99.90;;;;;;5115505;28;20537;-88
2021/03/23 01:11:27;;;;;;;9.87;6.20;;;4.20;99.90;;;;;;5115812;28;20492;-87
2021/03/23 01:13:53;;;;;;;12.77;6.27;;;4.20;99.90;;;;;;5115456;28;20532;-79
2021/03/23 01:16:19;;;;;;;12.63;6.33;;;4.20;99.90;;;;;;5114695;28;20974;-79
2021/03/23 01:18:45;;;;;;;11.30;6.40;;;4.20;99.90;;;;;;5114820;28;20823;-79
2021/03/23 01:21:12;;;;;;;11.70;6.00;;;4.20;99.90;;;;;;5115032;28;20454;-80
2021/03/23 01:23:38;;;;;;;11.67;6.43;;;4.20;99.90;;;;;;5114643;28;20439;-79
2021/03/23 01:26:04;;;;;;;13.00;6.63;;;4.10;99.90;;;;;;5114832;28;20448;-79
2021/03/23 01:28:31;;;;;;;13.03;6.10;;;4.10;99.90;;;;;;5114444;28;20973;-79
2021/03/23 01:30:58;;;;;;;11.30;6.50;;;4.10;99.90;;;;;;5114733;28;20450;-79
2021/03/23 01:33:25;;;;;;;10.20;6.87;;;4.10;99.90;;;;;;5114965;28;20453;-87
2021/03/23 01:35:51;;;;;;;12.00;5.50;;;4.10;99.90;;;;;;5123133;28;20447;-86
2021/03/23 01:38:18;;;;;;;13.00;6.13;;;4.00;99.90;;;;;;5119408;28;20994;-87
2021/03/23 01:40:44;;;;;;;10.47;5.83;;;4.00;99.90;;;;;;5117305;28;20458;-87
2021/03/23 01:43:21;;;;;;;16.20;7.13;;;4.00;99.90;;;;;;5116159;28;20443;-86
2021/03/23 01:45:48;;;;;;;13.53;6.40;;;4.00;99.90;;;;;;5115482;28;20438;-80
2021/03/23 01:48:20;;;;;;;12.90;6.40;;;3.90;99.90;;;;;;5115137;28;20466;-86
2021/03/23 01:50:50;;;;;;;11.23;5.97;;;4.00;99.90;;;;;;5116137;28;20817;-88
2021/03/23 01:53:22;;;;;;;13.90;6.50;;;4.00;99.90;;;;;;5114794;28;20443;-88
2021/03/23 01:55:49;;;;;;;15.80;6.47;;;4.00;99.90;;;;;;5114727;28;20470;-79
2021/03/23 01:58:17;;;;;;;13.77;6.83;;;4.00;99.90;;;;;;5114459;28;20463;-79
2021/03/23 02:00:46;;;;;;;12.13;6.40;;;4.00;99.90;;;;;;5114453;28;20435;-79
2021/03/23 02:03:13;;;;;;;11.57;7.00;;;4.10;99.90;;;;;;5114818;28;20443;-88
2021/03/23 02:05:39;;;;;;;11.97;6.60;;;4.10;99.90;;;;;;5114708;28;20938;-88
2021/03/23 02:08:07;;;;;;;17.27;8.37;;;4.10;99.90;;;;;;5114790;28;20523;-87
2021/03/23 02:10:35;;;;;;;16.60;7.70;;;4.10;99.90;;;;;;5114290;28;20475;-80
2021/03/23 02:13:04;;;;;;;13.30;7.30;;;4.10;99.90;;;;;;5113705;28;20454;-79
2021/03/23 02:15:30;;;;;;;10.97;6.60;;;4.10;99.90;;;;;;5113912;28;20853;-79
2021/03/23 02:18:09;;;;;;;14.57;7.80;;;4.10;99.90;;;;;;5113902;28;20519;-79
2021/03/23 02:20:55;;;;;;;17.20;7.80;;;4.10;99.90;;;;;;5114302;28;20449;-88
2021/03/23 02:23:24;;;;;;;14.40;6.87;;;4.10;99.90;;;;;;5114541;28;20427;-87
2021/03/23 02:25:50;;;;;;;13.10;7.87;;;4.10;99.90;;;;;;5114485;28;20443;-88
2021/03/23 02:28:17;;;;;;;16.23;7.70;;;4.10;99.90;;;;;;5114190;28;20478;-87
2021/03/23 02:30:46;;;;;;;16.00;7.23;;;4.10;99.90;;;;;;5113919;28;20447;-88
2021/03/23 02:33:13;;;;;;;16.10;8.50;;;4.10;99.90;;;;;;5114497;28;20430;-80
2021/03/23 02:35:39;;;;;;;16.40;8.33;;;4.10;99.90;;;;;;5113625;28;20486;-79
2021/03/23 02:38:06;;;;;;;17.90;8.10;;;4.10;99.90;;;;;;5113945;28;20482;-79
2021/03/23 02:40:33;;;;;;;20.63;8.93;;;4.10;99.90;;;;;;5113884;28;20446;-88
2021/03/23 02:42:59;;;;;;;14.80;8.00;;;4.10;99.90;;;;;;5114072;28;20500;-79
2021/03/23 02:45:27;;;;;;;20.57;9.63;;;4.10;99.90;;;;;;5113702;28;20454;-79
2021/03/23 02:47:53;;;;;;;18.10;8.57;;;4.10;99.90;;;;;;5113605;28;20493;-80
2021/03/23 02:50:20;;;;;;;18.40;9.07;;;4.10;99.90;;;;;;5113865;28;20439;-79
2021/03/23 02:52:46;;;;;;;19.93;9.63;;;4.00;99.90;;;;;;5113590;28;20443;-79
2021/03/23 02:55:15;;;;;;;18.87;8.90;;;4.00;99.90;;;;;;5113702;28;20494;-87
2021/03/23 02:57:41;;;;;;;21.10;9.80;;;4.00;99.90;;;;;;5114014;28;20826;-79
2021/03/23 03:00:09;;;;;;;17.57;8.50;;;4.00;99.90;;;;;;5113603;28;20942;-87
2021/03/23 03:02:36;;;;;;;19.00;9.50;;;4.00;99.90;;;;;;5113679;28;20817;-79
2021/03/23 03:05:03;;;;;;;22.73;9.23;;;4.00;99.90;;;;;;5113493;28;20443;-79
2021/03/23 03:07:29;;;;;;;19.60;9.00;;;4.00;99.90;;;;;;5114128;28;20466;-88
2021/03/23 03:09:56;;;;;;;16.13;8.87;;;4.00;99.90;;;;;;5113661;28;20458;-87
2021/03/23 03:12:23;;;;;;;17.00;9.77;;;4.00;99.90;;;;;;5114084;28;20431;-88
2021/03/23 03:14:49;;;;;;;20.70;9.80;;;4.00;99.90;;;;;;5113582;28;20583;-87
2021/03/23 03:17:15;;;;;;;21.30;11.10;;;4.00;99.90;;;;;;5113306;28;20508;-78
2021/03/23 03:19:41;;;;;;;23.87;11.40;;;4.00;99.90;;;;;;5113424;28;20447;-79
2021/03/23 03:22:08;;;;;;;22.27;10.60;;;4.00;99.90;;;;;;5113796;28;20450;-88
2021/03/23 03:24:34;;;;;;;21.63;10.47;;;3.90;99.90;;;;;;5115300;28;20447;-80
2021/03/23 03:27:00;;;;;;;19.80;9.80;;;4.00;99.90;;;;;;5117276;28;20471;-88
2021/03/23 03:29:27;;;;;;;20.00;10.50;;;3.90;99.90;;;;;;5117487;28;20454;-88
2021/03/23 03:31:53;;;;;;;25.57;11.87;;;3.90;99.90;;;;;;5117668;28;20438;-88
2021/03/23 03:34:21;;;;;;;23.10;10.83;;;3.90;99.90;;;;;;5117433;28;20477;-80
2021/03/23 03:36:47;;;;;;;21.83;11.10;;;3.80;99.90;;;;;;5117364;28;20466;-88
2021/03/23 03:39:13;;;;;;;23.50;12.47;;;3.90;99.90;;;;;;5117594;28;20786;-79
2021/03/23 03:41:40;;;;;;;24.57;11.90;;;3.90;99.90;;;;;;5128490;28;20503;-87
2021/03/23 03:44:07;;;;;;;26.40;11.03;;;3.80;99.90;;;;;;5123101;28;20443;-88
2021/03/23 03:46:34;;;;;;;24.43;10.60;;;3.80;99.90;;;;;;5119580;28;20447;-80
2021/03/23 03:49:00;;;;;;;21.63;10.80;;;3.90;99.90;;;;;;5117577;28;20431;-88
2021/03/23 03:51:26;;;;;;;19.07;10.93;;;3.90;99.90;;;;;;5117539;28;20477;-88
2021/03/23 03:53:53;;;;;;;23.77;10.87;;;3.90;99.90;;;;;;5117304;28;20532;-80
2021/03/23 03:56:19;;;;;;;25.30;11.70;;;3.90;99.90;;;;;;5116733;28;20573;-88
2021/03/23 03:58:46;;;;;;;24.90;11.10;;;3.90;99.90;;;;;;5116811;28;20516;-79
2021/03/23 04:01:12;;;;;;;25.17;11.10;;;3.90;99.90;;;;;;5116382;28;20453;-88
2021/03/23 04:03:39;;;;;;;19.07;9.97;;;3.90;99.90;;;;;;5117133;28;20458;-88
2021/03/23 04:06:06;;;;;;;22.03;11.37;;;3.90;99.90;;;;;;5116764;28;20810;-79
2021/03/23 04:08:33;;;;;;;22.57;12.13;;;3.90;99.90;;;;;;5116842;28;20462;-87
2021/03/23 04:11:02;;;;;;;20.53;11.13;;;3.90;99.90;;;;;;5116316;28;20490;-79
2021/03/23 04:13:29;;;;;;;27.57;11.33;;;3.90;99.90;;;;;;5117150;28;20449;-79
2021/03/23 04:15:57;;;;;;;26.63;11.93;;;3.90;99.90;;;;;;5116410;28;20439;-79
2021/03/23 04:18:26;;;;;;;23.23;10.30;;;3.90;99.90;;;;;;5116128;28;20505;-79
2021/03/23 04:20:55;;;;;;;23.23;10.60;;;3.90;99.90;;;;;;5117048;28;20485;-88
2021/03/23 04:23:25;;;;;;;26.23;11.93;;;3.90;99.90;;;;;;5116482;28;20442;-88
2021/03/23 04:25:51;;;;;;;26.27;11.20;;;3.80;99.90;;;;;;5117043;28;20785;-88
2021/03/23 04:28:18;;;;;;;24.47;11.50;;;3.80;99.90;;;;;;5116026;28;20469;-79
2021/03/23 04:30:44;;;;;;;22.93;10.40;;;3.80;99.90;;;;;;5116450;28;20431;-87
2021/03/23 04:33:10;;;;;;;21.90;11.47;;;3.80;99.90;;;;;;5116332;28;20454;-88
2021/03/23 04:35:46;;;;;;;23.80;11.50;;;3.80;99.90;;;;;;5115392;28;20490;-79
2021/03/23 04:38:16;;;;;;;23.43;10.93;;;3.80;99.90;;;;;;5115500;28;20973;-79
2021/03/23 04:40:43;;;;;;;21.10;11.37;;;3.80;99.90;;;;;;5115792;28;20519;-79
2021/03/23 04:43:11;;;;;;;26.00;11.90;;;3.80;99.90;;;;;;5115716;28;20451;-79
2021/03/23 04:45:37;;;;;;;22.17;10.40;;;3.80;99.90;;;;;;5115658;28;20450;-88
2021/03/23 04:48:04;;;;;;;24.83;11.20;;;3.80;99.90;;;;;;5115736;28;20471;-79
2021/03/23 04:50:31;;;;;;;22.70;10.20;;;3.80;99.90;;;;;;5115893;28;20451;-88
2021/03/23 04:52:57;;;;;;;22.77;11.00;;;3.80;99.90;;;;;;5116264;28;20435;-79
2021/03/23 04:55:24;;;;;;;17.20;9.90;;;3.80;99.90;;;;;;5115428;28;20857;-79
2021/03/23 04:57:50;;;;;;;25.70;12.83;;;3.80;99.90;;;;;;5116073;28;20516;-89
2021/03/23 05:00:17;;;;;;;22.07;11.43;;;3.80;99.90;;;;;;5116374;28;20447;-88
2021/03/23 05:02:43;;;;;;;22.50;10.27;;;3.80;99.90;;;;;;5115857;28;20450;-79
2021/03/23 05:05:11;;;;;;;23.00;11.23;;;3.80;99.90;;;;;;5115800;28;20435;-88
2021/03/23 05:07:38;;;;;;;24.53;11.27;;;3.80;99.90;;;;;;5115794;28;20969;-87
2021/03/23 05:10:06;;;;;;;20.13;10.50;;;3.80;99.90;;;;;;5115517;28;20443;-79
2021/03/23 05:12:33;;;;;;;20.73;11.37;;;3.80;99.90;;;;;;5115431;28;20447;-79
2021/03/23 05:15:00;;;;;;;22.10;11.23;;;3.80;99.90;;;;;;5114859;28;21066;-79
2021/03/23 05:17:26;;;;;;;24.60;10.77;;;3.80;99.90;;;;;;5114959;28;20903;-79
2021/03/23 05:19:52;;;;;;;20.30;10.83;;;3.80;99.90;;;;;;5116848;28;20447;-89
2021/03/23 05:22:18;;;;;;;23.50;10.60;;;3.70;99.90;;;;;;5115105;28;20446;-87
2021/03/23 05:24:45;;;;;;;19.47;10.23;;;3.80;99.90;;;;;;5115439;28;20447;-87
2021/03/23 05:27:11;;;;;;;21.80;11.63;;;3.80;99.90;;;;;;5115054;28;20459;-79
2021/03/23 05:29:38;;;;;;;26.00;10.80;;;3.80;99.90;;;;;;5115124;28;20477;-88
2021/03/23 05:32:06;;;;;;;26.37;12.10;;;3.80;99.90;;;;;;5114509;28;20454;-79
2021/03/23 05:34:32;;;;;;;24.70;10.33;;;3.70;99.90;;;;;;5115304;28;20487;-87
2021/03/23 05:36:58;;;;;;;21.03;10.23;;;3.70;99.90;;;;;;5114940;28;20466;-79
2021/03/23 05:39:24;;;;;;;20.30;10.60;;;3.70;99.90;;;;;;5114674;28;20443;-79
2021/03/23 05:41:59;;;;;;;26.70;11.17;;;3.70;99.90;;;;;;5114264;28;20946;-79
2021/03/23 05:44:52;;;;;;;24.40;10.67;;;3.70;99.90;;;;;;5115340;28;20432;-88
2021/03/23 05:47:25;;;;;;;23.40;11.87;;;3.70;99.90;;;;;;5115620;28;20478;-88
2021/03/23 05:49:57;;;;;;;24.40;11.00;;;3.80;99.90;;;;;;5115335;28;20445;-88
2021/03/23 05:52:27;;;;;;;26.23;11.90;;;3.80;99.90;;;;;;5114249;28;20937;-79
2021/03/23 05:55:02;;;;;;;20.77;10.93;;;3.80;99.90;;;;;;5113827;28;21003;-79
2021/03/23 05:57:32;;;;;;;19.13;10.80;;;3.80;99.90;;;;;;5114034;28;20814;-79
2021/03/23 06:00:04;;;;;;;22.97;11.07;;;3.90;99.90;;;;;;5114829;28;20473;-88
2021/03/23 06:02:38;;;;;;;21.47;10.93;;;3.90;99.90;;;;;;5114969;28;20438;-79
2021/03/23 06:05:30;;;;;;;34.17;11.90;;;3.90;99.90;;;;;;5114261;28;20427;-79
2021/03/23 06:08:01;;;;;;;23.20;10.93;;;4.00;99.90;;;;;;5114145;28;20560;-79
2021/03/23 06:10:28;;;;;;;22.43;10.70;;;4.00;99.90;;;;;;5114573;28;20531;-87
2021/03/23 06:13:04;;;;;;;24.20;11.00;;;4.00;99.90;;;;;;5114186;28;20500;-79
2021/03/23 06:15:39;;;;;;;21.07;10.50;;;4.00;99.90;;;;;;5114084;28;20474;-88
2021/03/23 06:18:18;;;;;;;19.40;9.27;;;4.10;99.90;;;;;;5114673;28;20538;-88
2021/03/23 06:20:54;;;;;;;24.37;11.10;;;4.10;99.90;;;;;;5114250;28;20518;-88
2021/03/23 06:23:40;;;;;;;24.40;11.13;;;4.10;99.90;;;;;;5114693;28;20427;-79
2021/03/23 06:26:15;;;;;;;28.27;12.17;;;4.10;99.90;;;;;;5113911;28;20438;-79
2021/03/23 06:28:54;;;;;;;21.20;11.40;;;4.20;99.90;;;;;;5114203;28;20594;-88
2021/03/23 06:31:42;;;;;;;24.30;12.37;;;4.20;99.90;;;;;;5113875;28;20438;-79
2021/03/23 06:34:15;;;;;;;22.40;10.87;;;4.20;99.90;;;;;;5113856;28;20826;-79
2021/03/23 06:36:41;;;;;;;27.77;12.10;;;4.30;99.90;;;;;;5113509;28;20432;-79
2021/03/23 06:39:08;;;;;;;19.10;10.10;;;4.30;99.90;;;;;;5113811;28;20443;-79
2021/03/23 06:41:35;;;;;;;25.70;10.83;;;4.30;99.90;;;;;;5113754;28;20447;-79
2021/03/23 06:44:21;;;;;;;23.80;11.87;;;4.30;99.90;;;;;;5113857;28;20447;-88
2021/03/23 06:46:49;;;;;;;24.40;11.10;;;4.40;99.90;;;;;;5114108;28;20463;-88
2021/03/23 06:49:27;;;;;;;23.57;11.17;;;4.40;99.90;;;;;;5113698;28;20451;-79
2021/03/23 06:52:19;;;;;;;26.77;11.87;;;4.50;99.90;;;;;;5113697;28;20796;-79
2021/03/23 06:55:05;;;;;;;22.07;11.57;;;4.50;99.90;;;;;;5104347;28;20520;-79
2021/03/23 06:57:36;;;;;;;30.50;12.27;;;4.60;99.90;;;;;;5114018;28;20550;-88
2021/03/23 07:00:09;;;;;;;22.23;11.80;;;4.70;99.90;;;;;;5116770;28;20427;-79
2021/03/23 07:02:39;;;;;;;24.57;12.30;;;4.80;99.90;;;;;;5119061;28;20786;-89
2021/03/23 07:05:24;;;;;;;26.60;12.73;;;4.80;99.90;;;;;;5118216;28;20435;-88
2021/03/23 07:07:54;;;;;;;24.07;11.70;;;4.80;99.90;;;;;;5118261;28;20511;-79
2021/03/23 07:10:23;;;;;;;24.43;12.70;;;4.90;99.90;;;;;;5117495;28;20454;-79
2021/03/23 07:12:51;;;;;;;23.33;12.43;;;4.90;99.90;;;;;;5117108;28;20443;-79
2021/03/23 07:15:19;;;;;;;29.67;12.37;;;5.00;99.90;;;;;;5117681;28;20481;-87
2021/03/23 07:17:49;;;;;;;24.47;12.60;;;5.10;99.90;;;;;;5117768;28;20503;-79
2021/03/23 07:20:39;;;;;;;24.53;12.43;;;5.10;99.90;;;;;;5117378;28;20427;-79
2021/03/23 07:23:24;;;;;;;27.27;12.80;;;5.20;99.90;;;;;;5117923;28;20431;-87
2021/03/23 07:25:51;;;;;;;27.63;12.67;;;5.10;99.90;;;;;;5117335;28;20460;-79
2021/03/23 07:28:28;;;;;;;27.23;11.87;;;5.20;99.90;;;;;;5117542;28;20470;-88
2021/03/23 07:31:06;;;;;;;22.67;12.80;;;5.20;99.90;;;;;;5117857;28;20430;-88
2021/03/23 07:33:42;;;;;;;27.30;12.90;;;5.30;99.90;;;;;;5117980;28;20438;-89
2021/03/23 07:36:12;;;;;;;26.60;11.83;;;5.30;99.90;;;;;;5117651;28;20473;-88
2021/03/23 07:38:45;;;;;;;25.67;13.40;;;5.40;99.90;;;;;;5117791;28;20523;-88
2021/03/23 07:41:20;;;;;;;25.60;12.17;;;5.60;99.90;;;;;;5117142;28;20432;-79
2021/03/23 07:43:52;;;;;;;25.30;12.00;;;5.60;99.90;;;;;;5117495;28;20821;-88
2021/03/23 07:46:24;;;;;;;25.80;13.40;;;5.70;99.90;;;;;;5117474;28;20484;-79
2021/03/23 07:48:59;;;;;;;28.53;13.40;;;5.80;99.90;;;;;;5116436;28;20842;-79
2021/03/23 07:51:31;;;;;;;26.53;13.43;;;5.70;99.90;;;;;;5116847;28;20448;-79
2021/03/23 07:54:25;;;;;;;26.93;13.47;;;5.80;99.90;;;;;;5116885;28;20435;-79
2021/03/23 07:57:08;;;;;;;27.70;13.30;;;5.90;99.90;;;;;;5116438;28;20483;-87
2021/03/23 08:00:00;;;;;;;24.67;13.30;;;6.00;99.90;;;;;;5116693;28;20454;-79
2021/03/23 08:02:41;;;;;;;26.47;12.80;;;6.10;99.90;;;;;;5116742;28;20424;-79
2021/03/23 08:05:16;;;;;;;27.60;12.90;;;6.30;99.90;;;;;;5116505;28;20436;-87
2021/03/23 08:07:53;;;;;;;25.37;12.73;;;6.20;99.90;;;;;;5117074;28;20445;-87
2021/03/23 08:10:34;;;;;;;26.93;12.47;;;6.20;99.90;;;;;;5116246;28;20450;-88
2021/03/23 08:13:28;;;;;;;26.47;13.27;;;6.40;99.90;;;;;;5127685;28;20427;-87
2021/03/23 08:16:17;;;;;;;25.77;12.40;;;6.50;99.90;;;;;;5116316;28;20471;-87
2021/03/23 08:19:09;;;;;;;25.37;13.27;;;6.60;99.90;;;;;;5116827;28;20466;-88
2021/03/23 08:21:57;;;;;;;23.80;11.97;;;6.60;99.90;;;;;;5116408;28;20965;-88
2021/03/23 08:24:35;;;;;;;29.47;13.60;;;6.70;99.90;;;;;;5116327;28;20419;-79
2021/03/23 08:27:34;;;;;;;22.50;13.33;;;6.80;99.90;;;;;;5116073;28;20463;-80
2021/03/23 08:30:11;;;;;;;22.60;13.10;;;6.80;99.90;;;;;;5116880;28;20516;-89
2021/03/23 08:32:43;;;;;;;27.20;12.50;;;6.80;99.90;;;;;;5116390;28;20508;-79
2021/03/23 08:35:32;;;;;;;25.93;12.47;;;6.90;99.90;;;;;;5115838;28;20474;-79
2021/03/23 08:38:28;;;;;;;26.50;13.40;;;7.00;99.90;;;;;;5115483;28;21051;-79
2021/03/23 08:41:02;;;;;;;27.70;14.10;;;7.10;99.90;;;;;;5060589;28;20467;-79
2021/03/23 08:43:36;;;;;;;25.17;12.53;;;7.20;99.90;;;;;;5115769;28;20419;-79
2021/03/23 08:46:06;;;;;;;23.83;12.00;;;7.30;99.90;;;;;;5115672;28;20472;-79
2021/03/23 08:48:41;;;;;;;24.40;12.50;;;7.50;99.90;;;;;;5115304;28;21050;-78
2021/03/23 08:51:11;;;;;;;24.87;12.43;;;7.50;99.90;;;;;;5115597;28;20488;-88
2021/03/23 08:54:00;;;;;;;27.60;12.33;;;7.60;99.90;;;;;;5116430;28;20439;-89
2021/03/23 08:56:55;;;;;;;22.23;12.30;;;7.70;99.90;;;;;;5109696;28;20900;-78
2021/03/23 08:59:54;;;;;;;27.50;12.23;;;7.80;99.90;;;;;;5115380;28;20447;-78
2021/03/23 09:02:50;;;;;;;22.40;11.97;;;8.00;99.90;;;;;;5115721;28;20435;-88
2021/03/23 09:05:55;;;;;;;20.20;11.23;;;8.20;99.90;;;;;;5116275;28;20434;-88
2021/03/23 09:08:35;;;;;;;22.93;11.57;;;8.30;99.90;;;;;;5116173;28;20488;-88
2021/03/23 09:11:06;;;;;;;22.23;10.60;;;8.40;99.90;;;;;;5115912;28;20427;-88
2021/03/23 09:14:12;;;;;;;19.00;9.73;;;8.60;99.90;;;;;;5115993;28;20437;-89
2021/03/23 09:17:14;;;;;;;18.70;9.40;;;8.80;99.90;;;;;;5098146;28;20431;-89
2021/03/23 09:19:47;;;;;;;20.57;9.77;;;8.90;99.90;;;;;;5115376;28;20427;-88
2021/03/23 09:22:30;;;;;;;15.87;10.40;;;9.00;99.90;;;;;;5115551;28;20419;-88
2021/03/23 09:25:48;;;;;;;16.53;8.90;;;9.20;99.90;;;;;;5115467;28;20958;-88
2021/03/23 09:28:51;;;;;;;9.70;5.47;;;9.30;99.90;;;;;;5115669;28;20471;-88
2021/03/23 09:31:21;;;;;;;11.20;6.33;;;9.10;99.90;;;;;;5115756;28;20446;-88
2021/03/23 09:33:49;;;;;;;13.10;6.97;;;9.20;99.90;;;;;;5115616;28;20442;-88
2021/03/23 09:36:39;;;;;;;12.23;7.03;;;9.20;99.90;;;;;;5115518;28;20463;-88
2021/03/23 09:39:32;;;;;;;13.83;7.53;;;9.20;99.90;;;;;;5115431;28;20423;-88
2021/03/23 09:42:19;;;;;;;14.90;7.90;;;9.20;99.90;;;;;;5104388;28;20853;-88
2021/03/23 09:44:58;;;;;;;13.27;7.10;;;9.10;99.90;;;;;;5115452;28;20438;-88
2021/03/23 09:47:41;;;;;;;10.30;6.40;;;8.90;99.90;;;;;;5115333;28;20459;-88
2021/03/23 09:50:23;;;;;;;7.90;5.57;;;9.00;99.90;;;;;;5115331;28;20487;-88
2021/03/23 09:52:58;;;;;;;10.57;6.30;;;8.80;99.90;;;;;;5115296;28;20438;-88
2021/03/23 09:55:25;;;;;;;12.00;6.43;;;8.90;99.90;;;;;;5115054;28;20493;-88
2021/03/23 09:57:52;;;;;;;10.57;6.27;;;8.80;99.90;;;;;;5115012;28;20463;-88
2021/03/23 10:00:24;;;;;;;13.77;6.30;;;8.70;99.90;;;;;;5115203;28;20459;-88
2021/03/23 10:02:51;;;;;;;12.83;6.43;;;8.70;99.90;;;;;;5114914;28;20502;-87
2021/03/23 10:05:20;;;;;;;12.93;6.57;;;8.60;99.90;;;;;;5115074;28;20438;-88
2021/03/23 10:07:49;;;;;;;9.67;5.47;;;8.70;99.90;;;;;;5115047;28;20467;-89
2021/03/23 10:10:25;;;;;;;10.80;5.37;;;8.40;99.90;;;;;;5114890;28;20956;-87
2021/03/23 10:12:52;;;;;;;10.23;5.80;;;8.30;99.60;;;;;;5114883;28;20484;-88
2021/03/23 10:15:28;;;;;;;8.70;4.93;;;8.20;99.90;;;;;;5114835;28;20451;-88
2021/03/23 10:18:09;;;;;;;11.90;4.40;;;8.10;99.90;;;;;;5114323;28;20470;-80
2021/03/23 10:20:35;;;;;;;7.53;4.20;;;8.10;99.90;;;;;;5113995;28;20459;-81
2021/03/23 10:23:03;;;;;;;8.10;4.40;;;8.00;99.90;;;;;;5114114;28;20495;-84
2021/03/23 10:25:29;;;;;;;4.80;3.33;;;8.00;99.90;;;;;;5113944;28;20518;-84
2021/03/23 10:28:00;;;;;;;6.77;4.03;;;8.10;99.90;;;;;;5113539;28;20458;-84
2021/03/23 10:30:33;;;;;;;5.07;3.90;;;8.10;99.90;;;;;;5113431;28;20443;-83
2021/03/23 10:33:17;;;;;;;4.77;3.00;;;8.10;99.90;;;;;;5113153;28;20463;-83
2021/03/23 10:35:52;;;;;;;5.50;3.67;;;8.10;99.70;;;;;;5113491;28;20471;-83
2021/03/23 10:38:22;;;;;;;5.93;3.30;;;8.10;99.50;;;;;;5113277;28;20463;-83
2021/03/23 10:40:49;;;;;;;4.60;2.90;;;8.10;97.70;;;;;;5114196;28;20455;-83
2021/03/23 10:43:29;;;;;;;2.83;2.10;;;8.10;97.40;;;;;;5113812;28;20473;-83
2021/03/23 10:45:58;;;;;;;2.70;1.83;;;8.00;97.40;;;;;;5113670;28;20534;-84
2021/03/23 10:48:27;;;;;;;2.93;1.90;;;8.00;96.50;;;;;;5113505;28;20869;-83
2021/03/23 10:51:18;;;;;;;7.80;3.07;;;8.10;95.10;;;;;;5113603;28;20444;-84
2021/03/23 10:54:01;;;;;;;3.07;2.63;;;8.20;94.40;;;;;;5109183;28;20443;-83
2021/03/23 10:56:30;;;;;;;3.47;2.47;;;8.20;94.50;;;;;;5113118;28;20577;-83
2021/03/23 10:59:08;;;;;;;6.47;2.40;;;8.10;94.30;;;;;;5113691;28;20826;-83
2021/03/23 11:01:35;;;;;;;5.33;2.83;;;8.00;94.90;;;;;;5113649;28;20460;-83
2021/03/23 11:04:12;;;;;;;6.90;3.03;;;8.10;95.50;;;;;;5113410;28;20803;-83
2021/03/23 11:06:39;;;;;;;4.67;2.83;;;8.20;95.30;;;;;;5113434;28;20934;-83
2021/03/23 11:09:09;;;;;;;4.93;3.10;;;8.30;94.40;;;;;;5113873;28;20438;-80
2021/03/23 11:11:35;;;;;;;6.67;3.53;;;8.40;94.60;;;;;;5113484;28;20479;-83
2021/03/23 11:14:02;;;;;;;4.90;3.33;;;8.50;94.30;;;;;;5113531;28;20419;-83
2021/03/23 11:16:32;;;;;;;5.10;3.20;;;8.60;94.10;;;;;;5113364;28;20463;-83
2021/03/23 11:19:01;;;;;;;4.93;3.17;;;8.60;94.10;;;;;;5113424;28;20439;-83
2021/03/23 11:21:31;;;;;;;5.67;3.00;;;8.60;93.90;;;;;;5113503;28;20446;-83
2021/03/23 11:23:57;;;;;;;4.43;2.83;;;8.70;94.50;;;;;;5113450;28;20408;-83
2021/03/23 11:26:30;;;;;;;5.03;3.43;;;8.90;93.90;;;;;;5113399;28;20427;-83
2021/03/23 11:28:58;;;;;;;4.80;3.10;;;8.90;94.30;;;;;;5113410;28;20412;-83
2021/03/23 11:31:27;;;;;;;5.60;3.20;;;9.20;93.70;;;;;;5113420;28;20529;-83
2021/03/23 11:33:55;;;;;;;5.50;3.40;;;9.40;92.70;;;;;;5113149;28;20882;-83
2021/03/23 11:36:23;;;;;;;7.17;3.63;;;9.40;92.20;;;;;;5113455;28;20481;-83
2021/03/23 11:38:51;;;;;;;4.70;3.30;;;9.40;91.90;;;;;;5113297;28;20444;-83
2021/03/23 11:41:21;;;;;;;4.00;3.00;;;9.30;92.50;;;;;;5113367;28;20439;-83
2021/03/23 11:43:50;;;;;;;6.90;4.17;;;9.30;92.70;;;;;;5113844;28;20825;-83
2021/03/23 11:46:21;;;;;;;5.30;3.40;;;9.40;92.40;;;;;;5116118;28;20431;-83
2021/03/23 11:48:53;;;;;;;5.47;4.00;;;9.30;92.50;;;;;;5116518;28;21028;-83
2021/03/23 11:51:21;;;;;;;8.37;3.70;;;9.40;92.20;;;;;;5116562;28;20435;-83
2021/03/23 11:53:49;;;;;;;5.57;3.23;;;9.30;92.10;;;;;;5116867;28;20441;-83
2021/03/23 11:56:15;;;;;;;5.10;3.60;;;9.20;92.40;;;;;;5116357;28;21008;-83
2021/03/23 11:58:42;;;;;;;5.30;3.90;;;9.40;92.30;;;;;;5116600;28;20471;-83
2021/03/23 12:01:09;;;;;;;5.60;3.50;;;9.60;91.20;;;;;;5116520;28;20857;-83
2021/03/23 12:03:36;;;;;;;5.87;3.57;;;9.40;90.50;;;;;;5116516;28;20431;-83
2021/03/23 12:06:03;;;;;;;5.60;3.50;;;9.20;91.30;;;;;;5116509;28;20427;-83
2021/03/23 12:08:34;;;;;;;6.03;3.80;;;9.20;91.90;;;;;;5116178;28;20465;-83
2021/03/23 12:11:16;;;;;;;4.20;3.23;;;9.00;92.10;;;;;;5117339;28;20435;-83
2021/03/23 12:13:49;;;;;;;6.53;4.00;;;9.10;92.50;;;;;;5116390;28;20493;-83
2021/03/23 12:16:22;;;;;;;4.23;3.00;;;9.00;92.30;;;;;;5115905;28;20470;-83
2021/03/23 12:18:54;;;;;;;24.00;5.60;;;9.10;92.70;;;;;;5116219;28;20965;-83
2021/03/23 12:21:22;;;;;;;5.90;3.60;;;9.20;91.40;;;;;;5116039;28;20907;-83
2021/03/23 12:23:49;;;;;;;5.50;3.43;;;9.10;91.70;;;;;;5116241;28;20431;-83
2021/03/23 12:26:16;;;;;;;4.97;4.07;;;9.00;92.10;;;;;;5116377;28;20452;-83
2021/03/23 12:28:44;;;;;;;6.50;3.13;;;9.10;91.70;;;;;;5116427;28;20475;-83
2021/03/23 12:31:11;;;;;;;7.43;3.70;;;9.10;90.80;;;;;;5116292;28;21044;-83
2021/03/23 12:33:37;;;;;;;6.57;4.60;;;9.10;91.10;;;;;;5116581;28;20436;-87
2021/03/23 12:36:04;;;;;;;6.27;4.17;;;9.00;91.60;;;;;;5116263;28;20463;-80
2021/03/23 12:38:31;;;;;;;4.80;3.10;;;9.10;91.40;;;;;;5116011;28;20448;-80
2021/03/23 12:40:58;;;;;;;8.97;4.13;;;9.00;91.40;;;;;;5115493;28;20940;-80
2021/03/23 12:43:26;;;;;;;7.77;4.17;;;8.90;91.30;;;;;;5115714;28;20492;-80
2021/03/23 12:45:55;;;;;;;5.40;4.23;;;8.80;91.80;;;;;;5115719;28;20427;-80
2021/03/23 12:48:22;;;;;;;5.57;4.13;;;8.80;92.10;;;;;;5115497;28;20509;-80
2021/03/23 12:50:48;;;;;;;4.83;3.40;;;8.70;92.50;;;;;;5115616;28;20510;-80
2021/03/23 12:53:17;;;;;;;6.83;4.37;;;8.70;92.20;;;;;;5115564;28;20427;-80
2021/03/23 12:55:48;;;;;;;6.97;4.20;;;8.90;91.70;;;;;;5115233;28;20487;-80
2021/03/23 12:58:17;;;;;;;7.10;4.07;;;9.00;91.90;;;;;;5114585;28;20471;-79
2021/03/23 13:00:45;;;;;;;7.80;4.23;;;9.10;91.10;;;;;;5115143;28;20435;-80
2021/03/23 13:03:14;;;;;;;7.60;4.57;;;9.20;91.10;;;;;;5115733;28;20458;-83
2021/03/23 13:05:41;;;;;;;9.80;4.40;;;9.20;91.70;;;;;;5116035;28;20485;-87
2021/03/23 13:08:19;;;;;;;6.50;4.87;;;9.20;90.40;;;;;;5115636;28;20447;-88